createdAt,value
2022-10-09T00:01:12.488Z,101275.06
2022-10-09T00:03:41.146Z,101271.00
2022-10-09T00:06:10.387Z,101285.94
2022-10-09T00:08:41.325Z,101278.47
2022-10-09T00:11:10.656Z,101280.16
2022-10-09T00:13:37.678Z,101283.97
2022-10-09T00:16:10.725Z,101286.28
2022-10-09T00:18:37.588Z,101296.91
2022-10-09T00:21:05.742Z,101291.13
2022-10-09T00:23:32.709Z,101303.03
2022-10-09T00:26:01.681Z,101289.50
2022-10-09T00:28:33.358Z,101303.13
2022-10-09T00:31:08.648Z,101304.81
2022-10-09T00:33:36.676Z,101299.34
2022-10-09T00:36:06.346Z,101307.84
2022-10-09T00:38:33.842Z,101305.97
2022-10-09T00:41:00.691Z,101310.41
2022-10-09T00:43:58.197Z,101311.84
2022-10-09T00:46:45.418Z,101311.84
2022-10-09T00:49:15.208Z,101317.84
2022-10-09T00:51:46.912Z,101320.19
2022-10-09T00:54:16.032Z,101322.03
2022-10-09T00:56:42.822Z,101324.72
2022-10-09T00:59:10.716Z,101325.59
2022-10-09T01:01:39.091Z,101327.31
2022-10-09T01:04:05.716Z,101326.00
2022-10-09T01:07:05.323Z,101332.94
2022-10-09T01:09:55.017Z,101331.25
2022-10-09T01:12:46.395Z,101334.34
2022-10-09T01:15:31.457Z,101345.16
2022-10-09T01:18:11.081Z,101340.72
2022-10-09T01:20:58.674Z,101340.47
2022-10-09T01:24:02.367Z,101345.25
2022-10-09T01:26:43.515Z,101346.22
2022-10-09T01:29:12.057Z,101359.41
2022-10-09T01:31:44.137Z,101358.44
2022-10-09T01:34:13.227Z,101355.44
2022-10-09T01:36:41.885Z,101362.91
2022-10-09T01:39:14.037Z,101364.41
2022-10-09T01:41:40.653Z,101370.25
2022-10-09T01:44:18.543Z,101365.28
2022-10-09T01:46:45.620Z,101368.84
2022-10-09T01:49:40.130Z,101368.00
2022-10-09T01:52:26.307Z,101366.03
2022-10-09T01:55:05.069Z,101377.13
2022-10-09T01:57:50.247Z,101376.34
2022-10-09T02:00:17.378Z,101377.00
2022-10-09T02:02:46.214Z,101379.09
2022-10-09T02:05:19.127Z,101382.78
2022-10-09T02:07:46.032Z,101389.03
2022-10-09T02:10:13.642Z,101391.19
2022-10-09T02:12:48.159Z,101399.59
2022-10-09T02:15:15.617Z,101404.47
2022-10-09T02:17:48.901Z,101402.69
2022-10-09T02:20:28.923Z,101409.19
2022-10-09T02:22:58.174Z,101406.41
2022-10-09T02:25:24.993Z,101414.38
2022-10-09T02:27:51.723Z,101410.75
2022-10-09T02:30:20.800Z,101423.00
2022-10-09T02:32:53.170Z,101415.56
2022-10-09T02:35:20.189Z,101412.84
2022-10-09T02:37:46.966Z,101422.88
2022-10-09T02:40:13.604Z,101427.69
2022-10-09T02:42:40.170Z,101432.56
2022-10-09T02:45:07.614Z,101435.03
2022-10-09T02:47:34.173Z,101437.63
2022-10-09T02:50:00.769Z,101446.63
2022-10-09T02:52:27.323Z,101438.84
2022-10-09T02:54:53.937Z,101439.28
2022-10-09T02:57:20.478Z,101433.56
2022-10-09T02:59:47.250Z,101440.06
2022-10-09T03:02:13.904Z,101449.56
2022-10-09T03:04:40.625Z,101450.78
2022-10-09T03:07:07.169Z,101454.16
2022-10-09T03:09:34.053Z,101459.56
2022-10-09T03:12:00.614Z,101460.75
2022-10-09T03:14:27.288Z,101460.16
2022-10-09T03:16:53.852Z,101459.44
2022-10-09T03:19:20.420Z,101465.84
2022-10-09T03:21:47.086Z,101471.88
2022-10-09T03:24:13.709Z,101473.81
2022-10-09T03:26:40.268Z,101478.03
2022-10-09T03:29:06.802Z,101481.13
2022-10-09T03:31:51.222Z,101478.47
2022-10-09T03:34:19.267Z,101483.41
2022-10-09T03:36:45.925Z,101482.13
2022-10-09T03:39:12.529Z,101489.66
2022-10-09T03:41:39.001Z,101485.25
2022-10-09T03:44:05.657Z,101484.13
2022-10-09T03:46:32.304Z,101493.00
2022-10-09T03:48:58.936Z,101493.50
2022-10-09T03:51:25.554Z,101491.13
2022-10-09T03:53:52.018Z,101501.91
2022-10-09T03:56:18.566Z,101506.50
2022-10-09T03:58:45.147Z,101508.34
2022-10-09T04:01:11.847Z,101507.03
2022-10-09T04:03:38.482Z,101519.63
2022-10-09T04:06:05.511Z,101511.56
2022-10-09T04:08:32.058Z,101521.19
2022-10-09T04:10:59.979Z,101533.00
2022-10-09T04:13:26.964Z,101528.28
2022-10-09T04:15:54.388Z,101530.16
2022-10-09T04:18:21.280Z,101519.75
2022-10-09T04:20:53.449Z,101525.53
2022-10-09T04:23:21.394Z,101519.25
2022-10-09T04:25:48.020Z,101523.22
2022-10-09T04:28:14.650Z,101530.81
2022-10-09T04:30:41.318Z,101527.44
2022-10-09T04:33:11.969Z,101529.34
2022-10-09T04:35:43.557Z,101525.88
2022-10-09T04:38:10.601Z,101528.34
2022-10-09T04:40:37.318Z,101526.31
2022-10-09T04:43:04.162Z,101523.97
2022-10-09T04:45:30.741Z,101526.53
2022-10-09T04:47:57.334Z,101532.25
2022-10-09T04:50:23.958Z,101532.88
2022-10-09T04:52:59.587Z,101526.25
2022-10-09T04:55:26.137Z,101544.50
2022-10-09T04:57:52.655Z,101542.81
2022-10-09T05:00:19.325Z,101544.31
2022-10-09T05:02:46.407Z,101551.16
2022-10-09T05:05:13.237Z,101547.03
2022-10-09T05:07:39.776Z,101556.50
2022-10-09T05:10:07.318Z,101551.16
2022-10-09T05:12:33.859Z,101558.91
2022-10-09T05:15:00.471Z,101556.19
2022-10-09T05:17:27.926Z,101559.25
2022-10-09T05:19:54.707Z,101564.09
2022-10-09T05:22:21.300Z,101564.28
2022-10-09T05:24:48.082Z,101566.13
2022-10-09T05:27:14.660Z,101565.34
2022-10-09T05:29:41.397Z,101572.56
2022-10-09T05:32:07.901Z,101572.56
2022-10-09T05:34:35.050Z,101580.47
2022-10-09T05:37:01.714Z,101578.91
2022-10-09T05:39:28.314Z,101586.03
2022-10-09T05:41:54.981Z,101581.88
2022-10-09T05:44:21.600Z,101590.50
2022-10-09T05:46:48.187Z,101585.31
2022-10-09T05:49:14.762Z,101590.91
2022-10-09T05:51:44.201Z,101590.97
2022-10-09T05:54:15.566Z,101588.03
2022-10-09T05:56:42.659Z,101600.31
2022-10-09T05:59:13.753Z,101601.25
2022-10-09T06:01:42.906Z,101605.94
2022-10-09T06:04:14.484Z,101604.03
2022-10-09T06:06:42.025Z,101607.38
2022-10-09T06:09:09.630Z,101611.38
2022-10-09T06:11:38.558Z,101606.84
2022-10-09T06:14:07.958Z,101617.66
2022-10-09T06:16:36.582Z,101615.56
2022-10-09T06:19:05.027Z,101615.63
2022-10-09T06:21:32.193Z,101619.19
2022-10-09T06:24:00.976Z,101622.78
2022-10-09T06:26:29.303Z,101630.91
2022-10-09T06:28:56.450Z,101630.56
2022-10-09T06:31:26.203Z,101637.63
2022-10-09T06:33:53.934Z,101636.16
2022-10-09T06:36:23.517Z,101636.59
2022-10-09T06:38:51.074Z,101642.09
2022-10-09T06:41:22.947Z,101647.00
2022-10-09T06:44:01.370Z,101652.31
2022-10-09T06:46:33.914Z,101659.56
2022-10-09T06:49:01.610Z,101661.88
2022-10-09T06:51:29.730Z,101662.47
2022-10-09T06:53:58.356Z,101672.75
2022-10-09T06:56:27.894Z,101670.03
2022-10-09T06:58:54.924Z,101669.44
2022-10-09T07:01:24.715Z,101666.97
2022-10-09T07:03:59.465Z,101671.19
2022-10-09T07:06:31.497Z,101678.28
2022-10-09T07:09:05.739Z,101674.41
2022-10-09T07:11:34.773Z,101675.94
2022-10-09T07:14:03.808Z,101675.28
2022-10-09T07:16:33.713Z,101684.50
2022-10-09T07:19:03.359Z,101689.13
2022-10-09T07:21:30.249Z,101686.78
2022-10-09T07:24:00.132Z,101701.97
2022-10-09T07:26:29.469Z,101693.09
2022-10-09T07:28:57.103Z,101689.69
2022-10-09T07:31:24.065Z,101696.31
2022-10-09T07:33:52.556Z,101693.75
2022-10-09T07:36:19.733Z,101700.22
2022-10-09T07:38:51.458Z,101704.66
2022-10-09T07:41:18.113Z,101711.31
2022-10-09T07:43:44.852Z,101716.72
2022-10-09T07:46:14.681Z,101710.59
2022-10-09T07:48:41.881Z,101717.97
2022-10-09T07:51:15.173Z,101724.59
2022-10-09T07:53:42.058Z,101726.16
2022-10-09T07:56:14.552Z,101729.03
2022-10-09T07:58:42.896Z,101722.84
2022-10-09T08:01:10.323Z,101729.13
2022-10-09T08:03:37.015Z,101732.56
2022-10-09T08:06:04.115Z,101728.91
2022-10-09T08:08:30.859Z,101734.41
2022-10-09T08:10:57.348Z,101735.09
2022-10-09T08:13:24.061Z,101722.84
2022-10-09T08:15:50.695Z,101737.00
2022-10-09T08:18:17.379Z,101741.81
2022-10-09T08:20:43.956Z,101733.13
2022-10-09T08:57:34.447Z,101757.19
2022-10-09T09:00:01.055Z,101758.53
2022-10-09T09:02:41.187Z,101765.94
2022-10-09T09:05:22.422Z,101763.94
2022-10-09T09:07:51.663Z,101761.56
2022-10-09T09:10:37.016Z,101764.56
2022-10-09T09:13:30.909Z,101761.28
2022-10-09T09:16:39.643Z,101772.22
2022-10-09T09:19:25.004Z,101764.81
2022-10-09T09:21:52.835Z,101764.66
2022-10-09T09:24:23.226Z,101763.75
2022-10-09T09:26:59.417Z,101763.28
2022-10-09T09:29:26.580Z,101763.16
2022-10-09T09:31:59.263Z,101771.38
2022-10-09T09:34:39.630Z,101755.97
2022-10-09T09:37:06.480Z,101768.81
2022-10-09T09:40:24.171Z,101769.34
2022-10-09T09:42:21.491Z,101768.38
2022-10-09T09:44:56.110Z,101766.09
2022-10-09T09:47:47.177Z,101770.72
2022-10-09T09:50:35.079Z,101765.66
2022-10-09T09:53:26.182Z,101771.19
2022-10-09T09:55:54.015Z,101770.41
2022-10-09T09:58:22.044Z,101776.16
2022-10-09T10:01:01.564Z,101771.25
2022-10-09T10:03:28.209Z,101776.88
2022-10-09T10:05:54.836Z,101771.13
2022-10-09T10:08:29.085Z,101778.88
2022-10-09T10:11:06.231Z,101784.25
2022-10-09T10:13:38.015Z,101780.16
2022-10-09T10:16:07.270Z,101780.09
2022-10-09T10:18:42.778Z,101778.28
2022-10-09T10:21:18.407Z,101781.88
2022-10-09T10:23:52.607Z,101792.50
2022-10-09T10:26:24.502Z,101788.50
2022-10-09T10:29:03.703Z,101792.06
2022-10-09T10:32:05.689Z,101788.84
2022-10-09T10:34:38.940Z,101805.34
2022-10-09T10:37:14.728Z,101794.84
2022-10-09T10:39:58.539Z,101793.50
2022-10-09T10:42:34.869Z,101801.69
2022-10-09T10:45:15.773Z,101799.31
2022-10-09T10:47:49.093Z,101796.00
2022-10-09T10:50:19.194Z,101802.47
2022-10-09T10:53:06.485Z,101807.41
2022-10-09T10:55:56.264Z,101794.44
2022-10-09T10:58:29.321Z,101793.41
2022-10-09T11:01:02.005Z,101803.03
2022-10-09T11:03:57.795Z,101809.56
2022-10-09T11:06:46.501Z,101807.19
2022-10-09T11:09:21.484Z,101802.47
2022-10-09T11:12:19.337Z,101801.28
2022-10-09T11:14:55.802Z,101799.94
2022-10-09T11:17:51.851Z,101803.91
2022-10-09T11:20:56.843Z,101795.06
2022-10-09T11:23:38.339Z,101802.47
2022-10-09T11:26:30.179Z,101804.25
2022-10-09T11:29:03.087Z,101793.97
2022-10-09T11:31:37.276Z,101791.25
2022-10-09T11:34:12.268Z,101789.69
2022-10-09T11:36:42.018Z,101786.94
2022-10-09T11:39:15.371Z,101786.19
2022-10-09T11:41:46.582Z,101779.53
2022-10-09T11:44:38.078Z,101784.81
2022-10-09T11:47:23.308Z,101779.28
2022-10-09T11:50:06.825Z,101769.88
2022-10-09T11:52:50.885Z,101776.16
2022-10-09T11:55:25.386Z,101775.50
2022-10-09T11:57:52.444Z,101772.94
2022-10-09T12:00:31.736Z,101762.81
2022-10-09T12:03:02.671Z,101770.81
2022-10-09T12:05:32.120Z,101773.78
2022-10-09T12:08:19.518Z,101765.19
2022-10-09T12:11:00.417Z,101761.88
2022-10-09T12:13:54.373Z,101763.50
2022-10-09T12:16:46.407Z,101764.28
2022-10-09T12:19:23.271Z,101760.66
2022-10-09T12:22:14.505Z,101754.28
2022-10-09T12:24:44.754Z,101751.84
2022-10-09T12:27:27.144Z,101753.91
2022-10-09T12:29:57.426Z,101748.50
2022-10-09T12:32:31.565Z,101752.13
2022-10-09T12:34:59.050Z,101742.97
2022-10-09T12:37:35.312Z,101744.94
2022-10-09T12:40:22.210Z,101754.25
2022-10-09T12:42:52.477Z,101743.94
2022-10-09T12:45:24.065Z,101750.41
2022-10-09T12:47:52.445Z,101759.06
2022-10-09T12:50:23.904Z,101749.59
2022-10-09T12:53:14.189Z,101753.00
2022-10-09T12:55:45.124Z,101743.31
2022-10-09T12:58:31.746Z,101743.50
2022-10-09T13:01:05.240Z,101739.03
2022-10-09T13:03:40.582Z,101741.94
2022-10-09T13:06:14.306Z,101742.22
2022-10-09T13:08:41.509Z,101738.97
2022-10-09T13:11:16.406Z,101727.72
2022-10-09T13:13:43.305Z,101734.13
2022-10-09T13:16:10.652Z,101730.56
2022-10-09T13:18:38.246Z,101723.84
2022-10-09T13:21:17.986Z,101726.13
2022-10-09T13:23:45.822Z,101725.59
2022-10-09T13:26:26.528Z,101724.66
2022-10-09T13:28:55.192Z,101727.09
2022-10-09T13:31:22.279Z,101729.59
2022-10-09T13:33:49.485Z,101728.25
2022-10-09T13:36:17.907Z,101731.75
2022-10-09T13:38:47.041Z,101733.16
2022-10-09T13:41:18.046Z,101725.94
2022-10-09T13:43:44.944Z,101727.22
2022-10-09T13:46:11.735Z,101727.59
2022-10-09T13:48:39.451Z,101727.72
2022-10-09T13:51:06.591Z,101734.00
2022-10-09T13:53:33.666Z,101718.16
2022-10-09T13:56:01.172Z,101723.66
2022-10-09T13:58:28.487Z,101724.69
2022-10-09T14:00:55.357Z,101719.59
2022-10-09T14:03:22.232Z,101718.03
2022-10-09T14:05:48.868Z,101714.25
2022-10-09T14:08:15.490Z,101717.63
2022-10-09T14:10:43.333Z,101703.25
2022-10-09T14:13:11.055Z,101703.09
2022-10-09T14:15:41.570Z,101706.94
2022-10-09T14:18:09.117Z,101706.03
2022-10-09T14:20:35.810Z,101714.16
2022-10-09T14:23:02.284Z,101709.59
2022-10-09T14:25:28.877Z,101700.69
2022-10-09T14:27:55.618Z,101700.91
2022-10-09T14:30:22.484Z,101698.72
2022-10-09T14:32:49.289Z,101692.44
2022-10-09T14:35:19.376Z,101693.03
2022-10-09T14:37:48.115Z,101691.75
2022-10-09T14:40:14.893Z,101691.69
2022-10-09T14:42:41.675Z,101688.03
2022-10-09T14:45:09.415Z,101694.03
2022-10-09T14:47:36.077Z,101687.94
2022-10-09T14:50:02.630Z,101687.22
2022-10-09T14:52:29.236Z,101685.16
2022-10-09T14:54:55.749Z,101693.59
2022-10-09T14:57:22.327Z,101685.06
2022-10-09T14:59:48.858Z,101681.69
2022-10-09T15:02:16.246Z,101681.03
2022-10-09T15:04:42.888Z,101685.78
2022-10-09T15:07:09.520Z,101674.03
2022-10-09T15:09:36.081Z,101674.28
2022-10-09T15:12:03.099Z,101676.78
2022-10-09T15:14:29.686Z,101672.72
2022-10-09T15:16:56.237Z,101663.84
2022-10-09T15:19:22.853Z,101669.28
2022-10-09T15:21:49.422Z,101661.75
2022-10-09T15:24:15.944Z,101660.19
2022-10-09T15:26:42.485Z,101656.91
2022-10-09T15:29:09.133Z,101652.13
2022-10-09T15:31:40.385Z,101652.50
2022-10-09T15:34:08.594Z,101653.38
2022-10-09T15:36:38.070Z,101647.53
2022-10-09T15:39:07.191Z,101645.03
2022-10-09T15:41:36.821Z,101642.88
2022-10-09T15:44:06.362Z,101641.91
2022-10-09T15:46:33.269Z,101647.94
2022-10-09T15:49:16.551Z,101653.66
2022-10-09T15:51:45.135Z,101641.88
2022-10-09T15:54:14.309Z,101638.91
2022-10-09T15:56:42.293Z,101649.63
2022-10-09T15:59:13.235Z,101644.25
2022-10-09T16:01:39.869Z,101644.09
2022-10-09T16:04:06.444Z,101644.84
2022-10-09T16:06:33.139Z,101645.03
2022-10-09T16:09:00.857Z,101642.97
2022-10-09T16:11:27.558Z,101646.56
2022-10-09T16:13:59.069Z,101646.28
2022-10-09T16:16:27.552Z,101648.31
2022-10-09T16:18:54.874Z,101637.44
2022-10-09T16:21:27.391Z,101650.25
2022-10-09T16:23:58.383Z,101647.69
2022-10-09T17:49:28.291Z,101658.19
2022-10-09T17:51:54.953Z,101654.88
2022-10-09T17:54:21.591Z,101660.09
2022-10-09T18:18:09.724Z,101652.16
2022-10-09T18:20:37.744Z,101655.59
2022-10-09T18:23:05.244Z,101648.00
2022-10-09T18:25:32.559Z,101650.63
2022-10-09T18:27:59.822Z,101642.69
2022-10-09T18:30:27.735Z,101650.53
2022-10-09T18:32:54.624Z,101639.88
2022-10-09T18:35:21.577Z,101639.94
2022-10-09T18:37:48.283Z,101645.09
2022-10-09T18:40:15.240Z,101640.84
2022-10-09T18:42:41.966Z,101642.63
2022-10-09T18:45:12.593Z,101643.31
2022-10-09T18:47:39.515Z,101646.16
2022-10-09T18:50:09.458Z,101641.16
2022-10-09T18:52:37.325Z,101645.53
2022-10-09T18:55:07.042Z,101644.72
2022-10-09T18:57:34.485Z,101636.47
2022-10-09T19:00:02.599Z,101642.75
2022-10-09T19:02:29.329Z,101633.50
2022-10-09T19:04:57.788Z,101637.09
2022-10-09T19:07:24.666Z,101643.25
2022-10-09T19:09:56.965Z,101631.94
2022-10-09T19:12:25.371Z,101636.19
2022-10-09T19:14:52.356Z,101640.53
2022-10-09T19:17:19.930Z,101636.53
2022-10-09T19:19:46.511Z,101637.56
2022-10-09T19:22:16.571Z,101640.34
2022-10-09T19:24:44.871Z,101637.28
2022-10-09T19:27:11.726Z,101633.91
2022-10-09T19:29:38.409Z,101630.72
2022-10-09T19:32:04.982Z,101631.72
2022-10-09T19:34:31.729Z,101621.69
2022-10-09T19:36:58.404Z,101631.25
2022-10-09T19:39:25.078Z,101621.88
2022-10-09T19:41:51.790Z,101628.00
2022-10-09T19:44:18.737Z,101621.41
2022-10-09T19:46:45.834Z,101629.50
2022-10-09T19:52:08.499Z,101622.91
2022-10-09T19:54:35.959Z,101627.25
2022-10-09T19:57:02.596Z,101619.56
2022-10-09T19:59:29.872Z,101625.72
2022-10-09T20:01:57.607Z,101627.47
2022-10-09T20:04:24.783Z,101624.03
2022-10-09T20:06:51.527Z,101626.06
2022-10-09T20:09:20.633Z,101615.00
2022-10-09T20:11:47.405Z,101619.38
2022-10-09T20:14:13.997Z,101622.91
2022-10-09T20:16:40.613Z,101614.22
2022-10-09T20:19:07.248Z,101616.00
2022-10-09T20:21:34.209Z,101609.25
2022-10-09T20:24:01.559Z,101605.03
2022-10-09T20:26:31.313Z,101605.88
2022-10-09T20:28:58.045Z,101610.16
2022-10-09T20:31:26.216Z,101604.13
2022-10-09T20:33:54.059Z,101597.13
2022-10-09T20:36:27.202Z,101596.44
2022-10-09T20:38:56.195Z,101603.25
2022-10-09T20:41:23.611Z,101604.31
2022-10-09T20:43:54.509Z,101596.59
2022-10-09T20:46:21.719Z,101595.72
2022-10-09T20:48:48.424Z,101600.28
2022-10-09T20:51:15.569Z,101598.69
2022-10-09T20:53:42.424Z,101600.50
2022-10-09T20:56:12.703Z,101598.00
2022-10-09T20:58:40.320Z,101603.94
2022-10-09T21:01:09.671Z,101589.31
2022-10-09T21:03:37.884Z,101584.88
2022-10-09T21:06:06.686Z,101589.31
2022-10-09T21:08:33.924Z,101578.06
2022-10-09T21:11:06.183Z,101583.28
2022-10-09T21:13:33.241Z,101578.22
2022-10-09T21:15:59.847Z,101573.91
2022-10-09T21:18:26.585Z,101571.47
2022-10-09T21:20:53.105Z,101567.22
2022-10-09T21:23:19.690Z,101570.69
2022-10-09T21:25:50.900Z,101570.81
2022-10-09T21:28:18.820Z,101572.78
2022-10-09T21:30:45.553Z,101570.16
2022-10-09T21:33:12.767Z,101576.28
2022-10-09T21:35:48.878Z,101576.38
2022-10-09T21:38:18.523Z,101562.50
2022-10-09T21:40:46.203Z,101575.59
2022-10-09T21:43:12.799Z,101572.13
2022-10-09T21:45:40.428Z,101567.69
2022-10-09T21:48:07.661Z,101570.38
2022-10-09T21:50:36.205Z,101558.28
2022-10-09T21:53:03.651Z,101554.81
2022-10-09T21:55:30.186Z,101559.13
2022-10-09T21:57:56.829Z,101550.66
2022-10-09T22:00:23.453Z,101550.19
2022-10-09T22:02:50.250Z,101547.00
2022-10-09T22:05:17.104Z,101552.28
2022-10-09T22:07:43.648Z,101549.72
2022-10-09T22:10:10.688Z,101547.84
2022-10-09T22:12:37.344Z,101542.56
2022-10-09T22:15:04.609Z,101537.31
2022-10-09T22:17:31.118Z,101532.13
2022-10-09T22:19:57.782Z,101530.44
2022-10-09T22:22:24.355Z,101532.13
2022-10-09T22:24:52.092Z,101530.34
2022-10-09T22:27:19.302Z,101529.56
2022-10-09T22:29:45.800Z,101522.50
2022-10-09T22:32:12.373Z,101519.88
2022-10-09T22:34:38.982Z,101515.66
2022-10-09T22:37:05.495Z,101511.22
2022-10-09T22:39:32.069Z,101510.53
2022-10-09T22:41:58.586Z,101520.03
2022-10-09T22:44:26.393Z,101506.94
2022-10-09T22:46:53.013Z,101513.91
2022-10-09T22:49:19.652Z,101514.75
2022-10-09T22:51:46.252Z,101512.22
2022-10-09T22:54:13.526Z,101501.81
2022-10-09T22:56:42.866Z,101501.88
2022-10-09T22:59:13.442Z,101495.09
2022-10-09T23:01:53.500Z,101497.72
2022-10-09T23:04:21.727Z,101495.97
2022-10-09T23:06:54.289Z,101501.94
2022-10-09T23:09:22.051Z,101497.72
2022-10-09T23:11:48.805Z,101493.50
2022-10-09T23:14:15.353Z,101484.06
2022-10-09T23:16:42.412Z,101487.56
2022-10-09T23:19:09.971Z,101486.75
2022-10-09T23:21:38.753Z,101489.44
2022-10-09T23:24:06.644Z,101479.84
2022-10-09T23:26:34.580Z,101489.22
2022-10-09T23:29:04.607Z,101477.91
2022-10-09T23:31:31.434Z,101479.63
2022-10-09T23:33:58.572Z,101473.53
2022-10-09T23:36:27.940Z,101478.72
2022-10-09T23:38:55.195Z,101478.72
2022-10-09T23:41:24.375Z,101482.25
2022-10-09T23:43:51.517Z,101476.25
2022-10-09T23:46:21.553Z,101471.06
2022-10-09T23:48:49.560Z,101471.06
2022-10-09T23:51:17.746Z,101463.44
2022-10-09T23:53:44.797Z,101466.03
2022-10-09T23:56:23.833Z,101466.97
